Time;durP1;ratioP1;P1;durP2;ratioP2;P2;SDS_P1;SDS_P2;PMS_P1;PMS_P2;Temp;Humidity;BMP_temperature;BMP_pressure;BME280_temperature;BME280_humidity;BME280_pressure;Samples;Min_cycle;Max_cycle;Signal;HPM_P1;HPM_P2
2021/03/31 00:00:35;;;;;;;11.00;3.77;;;;;;;5.39;57.12;101994.98;113127;1209;64381;-76
2021/03/31 00:03:16;;;;;;;6.90;3.60;;;;;;;5.38;57.41;101984.59;113026;1209;64457;-79
2021/03/31 00:05:42;;;;;;;8.20;3.80;;;;;;;5.36;56.76;101989.95;113012;1209;64381;-77
2021/03/31 00:08:09;;;;;;;9.10;3.40;;;;;;;5.35;56.53;101987.42;113080;1209;64485;-79
2021/03/31 00:10:40;;;;;;;5.70;3.10;;;;;;;5.33;57.38;101984.05;113113;1209;64409;-79
2021/03/31 00:13:07;;;;;;;5.57;3.30;;;;;;;5.31;57.49;101977.13;113438;1209;64509;-79
2021/03/31 00:15:34;;;;;;;7.40;3.15;;;;;;;5.31;57.17;101981.53;113272;1209;64386;-79
2021/03/31 00:18:05;;;;;;;8.33;2.90;;;;;;;5.31;57.14;101971.00;113292;1209;64365;-79
2021/03/31 00:20:31;;;;;;;7.10;3.20;;;;;;;5.30;57.26;101966.70;113199;1209;64352;-78
2021/03/31 00:22:58;;;;;;;6.93;2.97;;;;;;;5.29;57.47;101967.64;113162;1209;64336;-78
2021/03/31 00:25:25;;;;;;;6.05;3.20;;;;;;;5.27;58.05;101965.14;113120;1209;64428;-79
2021/03/31 00:27:51;;;;;;;5.37;3.40;;;;;;;5.25;57.88;101969.67;113196;1209;64388;-78
2021/03/31 00:30:18;;;;;;;7.45;3.60;;;;;;;5.23;58.04;101960.21;113096;1209;64474;-77
2021/03/31 00:32:45;;;;;;;6.63;3.43;;;;;;;5.21;58.13;101962.11;113073;1209;64322;-77
2021/03/31 00:35:12;;;;;;;7.20;3.60;;;;;;;5.18;58.78;101952.62;113047;1209;64457;-77
2021/03/31 00:37:39;;;;;;;6.65;3.70;;;;;;;5.17;58.50;101945.69;113051;1209;64512;-77
2021/03/31 00:40:17;;;;;;;8.10;4.10;;;;;;;5.20;59.04;101948.09;115799;1209;64236;-77
2021/03/31 00:42:45;;;;;;;8.00;3.60;;;;;;;5.23;59.21;101942.63;115972;1209;62355;-79
2021/03/31 00:45:14;;;;;;;8.83;4.30;;;;;;;5.27;59.23;101944.09;113306;1209;64381;-78
2021/03/31 00:47:40;;;;;;;9.47;3.70;;;;;;;5.29;59.13;101936.94;113513;1209;64314;-78
2021/03/31 00:50:11;;;;;;;8.07;4.23;;;;;;;5.31;59.44;101937.66;113314;1209;64553;-78
2021/03/31 00:52:41;;;;;;;9.90;3.60;;;;;;;5.33;59.18;101939.33;113045;1209;64377;-76
2021/03/31 00:55:09;;;;;;;7.40;4.40;;;;;;;5.34;58.95;101933.13;113047;1209;64384;-76
2021/03/31 00:57:38;;;;;;;7.00;4.30;;;;;;;5.31;59.29;101929.77;113368;1209;64288;-77
2021/03/31 01:00:06;;;;;;;8.05;4.30;;;;;;;5.31;59.73;101919.25;113097;1209;64384;-76
2021/03/31 01:02:33;;;;;;;10.33;4.10;;;;;;;5.29;59.68;101915.88;113049;1209;64449;-78
2021/03/31 01:04:59;;;;;;;8.45;4.10;;;;;;;5.25;59.22;101916.22;113054;1209;64325;-76
2021/03/31 01:07:26;;;;;;;6.67;3.90;;;;;;;5.22;59.49;101914.63;112950;1209;65552;-77
2021/03/31 01:09:55;;;;;;;6.55;3.80;;;;;;;5.18;59.35;101910.53;112938;1209;64368;-77
2021/03/31 01:12:58;;;;;;;6.63;4.00;;;;;;;5.15;59.57;101918.66;113465;1208;64362;-77
2021/03/31 01:15:38;;;;;;;7.67;4.23;;;;;;;5.08;59.81;101914.79;113057;1209;65363;-78
2021/03/31 01:18:14;;;;;;;12.60;3.97;;;;;;;5.01;60.16;101913.52;113066;1209;64423;-78
2021/03/31 01:21:20;;;;;;;7.33;4.03;;;;;;;4.97;60.60;101901.54;113091;1209;64422;-78
2021/03/31 01:24:18;;;;;;;5.57;3.33;;;;;;;4.93;60.94;101900.08;113099;1209;64381;-78
2021/03/31 01:26:54;;;;;;;7.40;3.60;;;;;;;4.87;61.31;101899.57;113095;1209;64473;-78
2021/03/31 01:29:59;;;;;;;6.00;4.03;;;;;;;4.83;61.44;101890.22;113532;1209;64406;-79
2021/03/31 01:32:34;;;;;;;7.20;4.00;;;;;;;4.77;61.69;101897.70;113187;1209;64394;-81
2021/03/31 01:35:06;;;;;;;8.83;4.73;;;;;;;4.72;61.15;101895.40;113091;1209;64349;-79
2021/03/31 01:37:37;;;;;;;8.35;3.10;;;;;;;4.65;61.51;101899.38;113154;1209;64320;-78
2021/03/31 01:40:07;;;;;;;6.00;3.60;;;;;;;4.61;61.87;101896.15;113201;1209;65177;-79
2021/03/31 01:42:39;;;;;;;9.85;4.10;;;;;;;4.56;61.73;101895.61;113487;1209;65010;-79
2021/03/31 01:45:08;;;;;;;7.97;3.57;;;;;;;4.51;61.88;101892.47;113103;1209;64668;-78
2021/03/31 01:47:42;;;;;;;6.70;4.30;;;;;;;4.47;61.72;101891.83;113223;1209;64397;-79
2021/03/31 01:50:09;;;;;;;8.67;4.57;;;;;;;4.43;61.92;101884.27;113376;1209;64310;-78
2021/03/31 01:52:37;;;;;;;9.37;5.07;;;;;;;4.40;62.61;101882.70;113099;1209;64384;-77
2021/03/31 01:55:06;;;;;;;7.13;4.00;;;;;;;4.37;62.12;101877.64;112989;1209;65588;-79
2021/03/31 01:57:34;;;;;;;7.70;3.47;;;;;;;4.33;61.90;101870.91;113192;1209;64365;-76
2021/03/31 02:00:05;;;;;;;5.47;3.33;;;;;;;4.29;62.66;101875.56;113047;1209;64364;-78
2021/03/31 02:02:33;;;;;;;5.03;3.67;;;;;;;4.27;62.85;101872.20;113278;1209;64365;-78
2021/03/31 02:05:02;;;;;;;9.23;3.93;;;;;;;4.27;62.86;101873.95;113243;1209;64458;-78
2021/03/31 02:07:29;;;;;;;9.50;5.00;;;;;;;4.22;62.87;101871.65;112976;1209;64518;-77
2021/03/31 02:09:56;;;;;;;9.43;5.20;;;;;;;4.18;62.77;101864.09;112913;1209;64371;-79
2021/03/31 02:12:26;;;;;;;7.77;4.50;;;;;;;4.14;63.10;101865.23;113071;1209;64457;-78
2021/03/31 02:14:55;;;;;;;7.13;4.17;;;;;;;4.10;63.41;101861.97;113399;1209;64439;-77
2021/03/31 02:17:25;;;;;;;9.13;3.57;;;;;;;4.06;63.36;101863.98;113117;1209;64314;-78
2021/03/31 02:19:54;;;;;;;7.50;4.10;;;;;;;4.03;63.98;101865.97;113280;1209;64391;-79
2021/03/31 02:22:26;;;;;;;8.17;4.53;;;;;;;3.97;64.00;101851.46;113393;1209;64371;-77
2021/03/31 02:24:53;;;;;;;9.27;3.67;;;;;;;3.96;64.16;101859.46;112939;1209;64407;-77
2021/03/31 02:27:21;;;;;;;8.30;4.27;;;;;;;3.94;64.57;101846.43;112954;1209;64400;-76
2021/03/31 02:29:50;;;;;;;8.83;4.97;;;;;;;3.93;64.53;101850.02;112987;1209;64343;-76
2021/03/31 02:32:21;;;;;;;7.87;4.23;;;;;;;3.92;64.71;101845.69;112964;1209;64988;-78
2021/03/31 02:34:52;;;;;;;12.20;4.97;;;;;;;3.92;65.17;101848.31;112976;1209;64413;-76
2021/03/31 02:37:20;;;;;;;10.13;5.27;;;;;;;3.92;65.38;101845.69;112993;1209;64307;-74
2021/03/31 02:39:50;;;;;;;10.70;4.27;;;;;;;3.90;65.48;101836.25;112923;1209;64464;-78
2021/03/31 02:42:18;;;;;;;10.13;4.63;;;;;;;3.91;65.58;101841.41;112974;1209;64384;-75
2021/03/31 02:44:48;;;;;;;10.93;4.67;;;;;;;3.91;65.85;101841.41;113648;1209;64534;-75
2021/03/31 02:47:26;;;;;;;8.57;4.70;;;;;;;3.88;65.75;101836.34;112944;1209;64343;-75
2021/03/31 02:49:57;;;;;;;12.03;5.47;;;;;;;3.84;65.72;101833.07;113014;1209;64389;-76
2021/03/31 02:52:24;;;;;;;12.30;5.75;;;;;;;3.81;66.01;101835.08;112890;1209;64441;-76
2021/03/31 02:54:53;;;;;;;7.63;4.50;;;;;;;3.76;66.08;101831.91;113172;1209;64372;-77
2021/03/31 02:57:21;;;;;;;8.13;4.33;;;;;;;3.73;66.06;101832.95;113127;1209;64474;-77
2021/03/31 02:59:49;;;;;;;9.85;4.20;;;;;;;3.70;66.50;101827.93;113005;1209;64509;-77
2021/03/31 03:02:18;;;;;;;11.95;5.00;;;;;;;3.66;66.26;101822.03;113015;1209;64311;-77
2021/03/31 03:04:48;;;;;;;9.53;4.73;;;;;;;3.62;66.31;101824.97;113246;1209;64326;-77
2021/03/31 03:07:15;;;;;;;15.80;6.07;;;;;;;3.51;67.00;101809.94;113083;1209;65342;-77
2021/03/31 03:09:43;;;;;;;9.23;5.00;;;;;;;3.57;66.95;101816.55;113147;1209;64384;-79
2021/03/31 03:12:15;;;;;;;10.20;4.80;;;;;;;3.54;67.39;101817.59;113030;1209;64303;-75
2021/03/31 03:14:46;;;;;;;11.50;5.30;;;;;;;3.54;66.98;101812.34;112989;1209;64477;-77
2021/03/31 03:17:13;;;;;;;10.23;4.13;;;;;;;3.53;67.40;101808.06;112932;1208;64477;-78
2021/03/31 03:19:40;;;;;;;10.47;5.20;;;;;;;3.51;67.48;101807.31;113012;1209;64240;-76
2021/03/31 03:22:07;;;;;;;9.55;4.55;;;;;;;3.50;68.14;101802.99;112974;1209;64447;-78
2021/03/31 03:24:36;;;;;;;9.17;5.03;;;;;;;3.48;67.91;101797.01;113044;1209;64340;-78
2021/03/31 03:27:05;;;;;;;11.65;5.20;;;;;;;3.45;67.74;101797.22;113007;1209;64418;-77
2021/03/31 03:29:33;;;;;;;12.30;5.50;;;;;;;3.42;68.02;101797.41;113174;1209;64488;-77
2021/03/31 03:32:00;;;;;;;10.55;4.40;;;;;;;3.40;68.35;101794.05;113039;1209;64429;-76
2021/03/31 03:34:27;;;;;;;10.93;5.10;;;;;;;3.36;68.20;101795.19;112986;1209;64493;-78
2021/03/31 03:36:54;;;;;;;8.70;4.45;;;;;;;3.33;68.46;101790.99;113037;1209;64557;-77
2021/03/31 03:39:21;;;;;;;11.90;4.70;;;;;;;3.29;68.51;101786.05;113215;1209;64900;-76
2021/03/31 03:41:48;;;;;;;9.73;5.63;;;;;;;3.28;68.91;101784.39;112946;1209;64362;-76
2021/03/31 03:44:16;;;;;;;10.60;5.20;;;;;;;3.29;68.86;101786.05;114938;1209;64793;-77
2021/03/31 03:46:45;;;;;;;8.30;4.85;;;;;;;3.29;69.28;101775.56;115906;1209;62383;-78
2021/03/31 03:49:11;;;;;;;9.20;5.10;;;;;;;3.31;69.26;101784.17;113043;1209;65676;-78
2021/03/31 03:51:39;;;;;;;12.90;4.40;;;;;;;3.31;69.21;101778.92;113098;1209;64413;-78
2021/03/31 03:54:10;;;;;;;11.33;5.20;;;;;;;3.30;69.55;101775.47;113128;1209;64320;-79
2021/03/31 03:56:37;;;;;;;11.17;5.23;;;;;;;3.31;69.29;101773.69;112950;1209;64435;-76
2021/03/31 03:59:25;;;;;;;10.80;4.87;;;;;;;3.29;69.37;101775.56;112939;1209;64544;-76
2021/03/31 04:01:52;;;;;;;12.10;4.95;;;;;;;3.25;69.33;101781.03;113314;1209;64330;-77
2021/03/31 04:04:19;;;;;;;7.20;4.00;;;;;;;3.25;69.59;101781.03;112869;1209;64445;-77
2021/03/31 04:06:59;;;;;;;13.60;4.67;;;;;;;3.23;69.55;101767.17;112957;1209;64507;-76
2021/03/31 04:09:25;;;;;;;11.47;4.83;;;;;;;3.21;69.99;101771.67;113022;1209;64336;-78
2021/03/31 04:11:52;;;;;;;9.03;4.37;;;;;;;3.19;69.54;101772.73;113027;1209;64448;-78
2021/03/31 04:14:19;;;;;;;11.63;4.57;;;;;;;3.19;70.17;101764.86;113024;1209;64409;-77
2021/03/31 04:16:48;;;;;;;11.60;5.00;;;;;;;3.19;70.04;101765.69;112991;1209;64361;-77
2021/03/31 04:19:18;;;;;;;12.77;5.47;;;;;;;3.21;69.88;101762.95;113094;1209;64410;-77
2021/03/31 04:21:45;;;;;;;10.50;5.23;;;;;;;3.26;70.24;101766.13;113049;1209;64351;-77
2021/03/31 04:24:15;;;;;;;11.53;5.30;;;;;;;3.30;70.21;101778.09;112957;1209;64474;-77
2021/03/31 04:26:44;;;;;;;11.20;4.70;;;;;;;3.36;69.88;101766.34;112998;1209;64342;-76
2021/03/31 04:29:12;;;;;;;11.00;5.00;;;;;;;3.39;69.71;101772.23;113021;1209;65620;-77
2021/03/31 04:31:41;;;;;;;11.13;5.20;;;;;;;3.41;69.52;101761.64;113003;1209;64320;-76
2021/03/31 04:34:09;;;;;;;16.47;4.93;;;;;;;3.41;69.36;101766.89;113101;1209;64387;-80
2021/03/31 04:36:36;;;;;;;14.23;5.30;;;;;;;3.39;69.35;101763.53;112944;1209;64433;-76
2021/03/31 04:39:05;;;;;;;7.75;4.60;;;;;;;3.36;69.46;101755.84;112981;1209;64384;-75
2021/03/31 04:41:34;;;;;;;7.70;3.20;;;;;;;3.34;69.33;101757.77;113250;1209;64413;-77
2021/03/31 04:44:01;;;;;;;8.50;4.73;;;;;;;3.30;69.69;101757.11;112963;1209;64400;-76
2021/03/31 04:46:28;;;;;;;13.55;4.90;;;;;;;3.28;69.56;101758.16;113004;1209;64416;-77
2021/03/31 04:48:55;;;;;;;15.33;5.73;;;;;;;3.26;69.85;101751.22;112960;1209;64541;-77
2021/03/31 04:51:22;;;;;;;13.00;5.55;;;;;;;3.25;69.83;101749.55;112986;1209;64763;-79
2021/03/31 04:53:49;;;;;;;10.83;5.30;;;;;;;3.24;70.00;101753.11;113119;1209;64365;-78
2021/03/31 04:56:15;;;;;;;12.70;5.03;;;;;;;3.25;70.24;101752.18;112934;1209;64754;-77
2021/03/31 04:58:46;;;;;;;12.70;5.87;;;;;;;3.25;70.38;101749.55;112934;1209;64474;-76
2021/03/31 05:01:13;;;;;;;10.93;5.17;;;;;;;3.27;70.35;101746.81;112961;1209;64503;-77
2021/03/31 05:03:39;;;;;;;17.67;5.80;;;;;;;3.28;70.33;101742.43;112946;1209;64374;-77
2021/03/31 05:06:06;;;;;;;11.53;5.63;;;;;;;3.29;70.37;101742.30;112954;1209;64477;-78
2021/03/31 05:08:32;;;;;;;10.45;5.25;;;;;;;3.30;70.29;101738.75;113057;1209;64429;-79
2021/03/31 05:10:59;;;;;;;15.37;5.10;;;;;;;3.30;70.58;101743.17;112985;1209;64391;-80
2021/03/31 05:13:25;;;;;;;14.67;5.67;;;;;;;3.31;70.62;101736.97;112899;1209;64390;-77
2021/03/31 05:15:52;;;;;;;9.97;5.30;;;;;;;3.31;70.76;101737.80;112948;1209;64384;-77
2021/03/31 05:18:19;;;;;;;10.07;5.07;;;;;;;3.32;70.33;101734.25;112937;1209;66010;-78
2021/03/31 05:20:45;;;;;;;17.40;6.70;;;;;;;3.34;70.73;101734.99;112982;1209;64803;-78
2021/03/31 05:23:12;;;;;;;15.40;6.10;;;;;;;3.38;70.51;101722.48;113080;1209;64365;-77
2021/03/31 05:25:39;;;;;;;14.80;5.95;;;;;;;3.43;70.34;101726.50;113001;1209;64519;-77
2021/03/31 05:28:07;;;;;;;14.73;5.53;;;;;;;3.50;70.33;101731.33;113164;1209;64827;-77
2021/03/31 05:30:34;;;;;;;12.30;5.17;;;;;;;3.57;70.10;101728.20;113013;1209;64418;-77
2021/03/31 05:33:02;;;;;;;15.50;5.65;;;;;;;3.66;70.45;101731.98;113345;1209;64454;-77
2021/03/31 05:35:28;;;;;;;12.05;5.30;;;;;;;3.75;70.33;101726.09;112939;1209;64391;-79
2021/03/31 05:37:55;;;;;;;14.77;4.87;;;;;;;3.83;70.21;101725.58;112929;1209;64477;-79
2021/03/31 05:40:22;;;;;;;11.77;4.80;;;;;;;3.91;69.85;101725.89;112995;1209;65466;-77
2021/03/31 05:42:48;;;;;;;16.37;6.33;;;;;;;4.00;69.84;101725.25;112937;1209;64471;-77
2021/03/31 05:45:15;;;;;;;13.90;5.35;;;;;;;4.05;69.56;101723.13;112951;1209;65325;-80
2021/03/31 05:47:44;;;;;;;11.80;5.25;;;;;;;4.14;69.14;101726.06;112953;1209;64381;-78
2021/03/31 05:50:14;;;;;;;12.60;6.20;;;;;;;4.21;69.11;101727.33;112998;1212;65352;-77
2021/03/31 05:52:43;;;;;;;11.30;4.63;;;;;;;4.31;69.35;101722.25;113033;1209;64362;-78
2021/03/31 05:55:12;;;;;;;10.40;5.53;;;;;;;4.41;68.50;101725.91;113263;1209;64438;-79
2021/03/31 05:57:40;;;;;;;11.50;4.75;;;;;;;4.50;69.17;101727.86;113102;1209;64310;-77
2021/03/31 06:00:12;;;;;;;11.37;4.43;;;;;;;4.63;68.46;101719.94;113176;1209;64340;-75
2021/03/31 06:02:41;;;;;;;10.10;5.10;;;;;;;4.74;68.16;101725.27;112934;1209;64384;-77
2021/03/31 06:05:11;;;;;;;7.23;3.87;;;;;;;4.86;67.69;101718.27;113027;1209;64336;-79
2021/03/31 06:07:45;;;;;;;9.50;4.60;;;;;;;4.97;67.90;101720.94;112989;1209;64368;-76
2021/03/31 06:10:19;;;;;;;8.15;4.25;;;;;;;5.11;67.62;101718.13;112921;1209;64349;-77
2021/03/31 06:13:09;;;;;;;13.95;4.28;;;;;;;5.27;67.27;101715.20;112902;1209;64397;-75
2021/03/31 06:15:40;;;;;;;7.30;3.93;;;;;;;5.45;66.48;101712.96;112881;1209;64516;-77
2021/03/31 06:18:11;;;;;;;9.33;4.77;;;;;;;5.65;65.65;101721.13;113177;1209;64345;-76
2021/03/31 06:20:43;;;;;;;8.40;4.10;;;;;;;5.84;65.12;101712.66;112934;1209;64542;-76
2021/03/31 06:26:26;;;;;;;9.15;4.35;;;;;;;6.22;64.27;101709.67;113099;1209;64371;-78
2021/03/31 06:28:33;;;;;;;7.95;4.20;;;;;;;6.47;63.52;101713.84;112936;1209;65607;-77
2021/03/31 06:31:21;;;;;;;6.87;4.60;;;;;;;6.69;62.23;101701.55;113018;1209;64412;-78
2021/03/31 06:33:49;;;;;;;12.97;4.00;;;;;;;6.90;61.59;101698.97;112921;1209;64413;-77
2021/03/31 06:36:18;;;;;;;8.93;4.63;;;;;;;7.09;61.39;101703.56;112996;1209;64375;-77
2021/03/31 06:38:47;;;;;;;9.33;4.83;;;;;;;7.29;60.81;101705.38;113240;1209;64311;-78
2021/03/31 06:41:33;;;;;;;9.27;4.03;;;;;;;7.50;60.47;101712.44;113121;1209;64393;-78
2021/03/31 06:44:17;;;;;;;;;;;;;;;7.69;59.40;101711.72;113090;1217;64451;-77
2021/03/31 06:47:09;;;;;;;9.37;3.93;;;;;;;7.89;59.04;101712.67;112914;1209;64365;-78
2021/03/31 06:49:37;;;;;;;7.53;3.93;;;;;;;8.07;58.81;101705.77;112990;1209;64423;-77
2021/03/31 06:52:11;;;;;;;14.25;4.55;;;;;;;8.24;57.65;101700.82;113362;1209;64348;-77
2021/03/31 06:54:45;;;;;;;9.97;4.97;;;;;;;8.40;57.74;101705.61;113241;1209;64460;-78
2021/03/31 06:57:22;;;;;;;9.10;4.27;;;;;;;8.56;57.12;101706.78;112976;1209;64378;-78
2021/03/31 07:00:00;;;;;;;10.77;4.67;;;;;;;8.75;57.24;101707.77;113076;1209;64390;-76
2021/03/31 07:02:29;;;;;;;10.47;4.23;;;;;;;8.93;57.24;101708.75;112911;1209;64457;-77
2021/03/31 07:04:57;;;;;;;11.90;5.10;;;;;;;9.10;56.90;101706.39;112990;1209;64406;-77
2021/03/31 07:07:34;;;;;;;10.47;4.73;;;;;;;9.26;56.43;101706.63;113067;1209;64503;-77
2021/03/31 07:10:13;;;;;;;10.83;5.43;;;;;;;9.44;56.22;101705.93;113103;1209;64502;-78
2021/03/31 07:12:48;;;;;;;10.37;4.63;;;;;;;9.61;56.05;101701.71;113015;1209;64416;-77
2021/03/31 07:15:24;;;;;;;10.88;4.85;;;;;;;9.76;55.35;101706.39;112990;1209;64387;-79
2021/03/31 07:17:56;;;;;;;11.47;5.70;;;;;;;9.93;54.95;101706.61;112931;1209;64378;-77
2021/03/31 07:20:25;;;;;;;10.33;4.80;;;;;;;10.08;54.85;101705.14;113021;1209;64464;-78
2021/03/31 07:22:53;;;;;;;11.65;5.10;;;;;;;10.26;54.37;101701.70;113070;1208;64402;-77
2021/03/31 07:25:22;;;;;;;12.90;4.93;;;;;;;10.40;53.86;101702.06;113163;1209;64352;-78
2021/03/31 07:27:51;;;;;;;9.97;4.60;;;;;;;10.56;53.71;101690.81;113804;1209;64313;-77
2021/03/31 07:30:22;;;;;;;12.95;5.75;;;;;;;10.72;53.73;101691.95;113035;1209;64451;-77
2021/03/31 07:33:16;;;;;;;13.57;5.23;;;;;;;10.89;53.62;101698.24;113406;1209;64566;-77
2021/03/31 07:35:43;;;;;;;11.53;5.80;;;;;;;11.06;53.93;101689.42;112939;1209;64461;-76
2021/03/31 07:38:13;;;;;;;8.65;4.50;;;;;;;11.23;53.86;101685.07;112902;1209;64468;-78
2021/03/31 07:40:41;;;;;;;10.05;4.80;;;;;;;11.41;54.18;101680.56;113167;1209;64317;-77
2021/03/31 07:43:10;;;;;;;10.67;4.83;;;;;;;11.60;54.04;101686.63;114019;1209;64422;-73
2021/03/31 07:46:01;;;;;;;10.65;5.60;;;;;;;11.80;53.95;101682.77;113892;1209;64306;-75
2021/03/31 07:48:28;;;;;;;14.97;5.33;;;;;;;12.01;53.18;101678.91;112903;1209;64553;-74
2021/03/31 07:50:55;;;;;;;10.10;5.20;;;;;;;12.18;53.45;101675.31;112923;1209;64316;-73
2021/03/31 07:53:23;;;;;;;10.30;5.00;;;;;;;12.37;52.05;101676.04;112939;1209;64374;-75
2021/03/31 07:55:55;;;;;;;11.90;5.80;;;;;;;12.57;51.92;101679.23;112934;1209;64384;-75
2021/03/31 07:58:28;;;;;;;11.87;5.43;;;;;;;12.78;51.95;101671.59;112924;1209;64518;-75
2021/03/31 08:01:08;;;;;;;11.83;5.93;;;;;;;12.99;51.68;101684.42;112912;1209;64588;-74
2021/03/31 08:03:43;;;;;;;9.87;4.83;;;;;;;13.23;50.73;101677.41;112917;1209;64368;-77
2021/03/31 08:06:19;;;;;;;9.60;5.40;;;;;;;13.38;50.47;101675.75;112912;1209;64438;-75
2021/03/31 08:08:46;;;;;;;11.63;5.87;;;;;;;13.56;49.69;101686.23;112941;1209;64387;-75
2021/03/31 08:11:34;;;;;;;11.37;6.37;;;;;;;13.77;49.41;101683.00;112961;1209;64473;-74
2021/03/31 08:14:00;;;;;;;14.80;6.45;;;;;;;14.03;48.41;101680.06;112829;1209;64393;-73
2021/03/31 08:16:34;;;;;;;20.73;6.17;;;;;;;14.21;47.43;101685.13;112921;1209;64480;-76
2021/03/31 08:19:04;;;;;;;14.23;5.70;;;;;;;14.41;45.57;101676.71;114520;1209;63684;-75
2021/03/31 08:21:32;;;;;;;10.40;4.57;;;;;;;14.60;45.38;101678.09;112958;1209;65327;-74
2021/03/31 08:24:03;;;;;;;12.83;6.20;;;;;;;14.80;46.02;101676.63;113192;1209;64362;-76
2021/03/31 08:26:35;;;;;;;7.83;4.20;;;;;;;14.99;43.79;101672.63;112980;1209;64409;-75
2021/03/31 08:29:05;;;;;;;13.35;5.90;;;;;;;15.18;44.33;101671.30;112911;1209;64413;-74
2021/03/31 08:31:40;;;;;;;11.80;5.13;;;;;;;15.39;43.85;101669.77;113218;1209;65611;-76
2021/03/31 08:34:09;;;;;;;12.10;5.87;;;;;;;15.57;43.00;101666.73;113473;1209;64400;-76
2021/03/31 08:36:56;;;;;;;10.93;4.93;;;;;;;15.80;43.04;101667.49;112914;1209;64397;-76
2021/03/31 08:39:23;;;;;;;11.97;5.87;;;;;;;15.97;42.11;101664.63;112961;1209;64356;-77
2021/03/31 08:41:56;;;;;;;12.23;5.40;;;;;;;16.14;40.66;101655.36;113122;1209;64365;-76
2021/03/31 08:44:34;;;;;;;15.80;6.90;;;;;;;16.31;41.13;101662.13;112959;1209;64487;-76
2021/03/31 08:47:21;;;;;;;12.95;5.25;;;;;;;16.51;39.86;101656.16;113026;1209;64497;-77
2021/03/31 08:50:01;;;;;;;10.63;5.50;;;;;;;16.69;39.56;101645.02;113088;1209;64459;-78
2021/03/31 08:52:37;;;;;;;10.97;5.80;;;;;;;16.87;39.51;101644.56;113002;1209;65262;-76
2021/03/31 08:55:10;;;;;;;9.43;4.37;;;;;;;17.03;38.86;101638.94;113498;1209;64345;-77
2021/03/31 08:57:38;;;;;;;13.50;6.87;;;;;;;17.19;39.00;101643.19;113797;1209;64346;-75
2021/03/31 09:00:09;;;;;;;12.00;6.60;;;;;;;17.32;38.62;101637.09;112992;1209;64408;-75
2021/03/31 09:02:41;;;;;;;13.43;7.33;;;;;;;17.49;38.06;101640.28;112951;1209;64464;-75
2021/03/31 09:05:09;;;;;;;12.40;6.57;;;;;;;17.64;37.90;101632.94;113037;1209;64505;-75
2021/03/31 09:07:37;;;;;;;9.63;4.60;;;;;;;17.80;37.14;101634.44;113199;1209;64397;-75
2021/03/31 09:10:11;;;;;;;16.43;6.37;;;;;;;17.96;36.87;101637.83;112899;1209;64419;-75
2021/03/31 09:12:38;;;;;;;10.90;5.60;;;;;;;18.11;36.83;101631.29;113112;1209;65597;-76
2021/03/31 09:15:06;;;;;;;16.33;7.77;;;;;;;18.26;35.57;101631.13;113013;1209;64444;-75
2021/03/31 09:17:34;;;;;;;18.13;7.10;;;;;;;18.42;35.53;101626.39;112989;1209;65511;-76
2021/03/31 09:20:09;;;;;;;12.60;6.20;;;;;;;18.52;34.06;101616.90;112995;1209;64359;-75
2021/03/31 09:22:37;;;;;;;16.10;6.93;;;;;;;18.64;34.25;101614.45;112964;1209;64330;-73
2021/03/31 09:25:09;;;;;;;10.95;5.55;;;;;;;18.81;33.71;101614.08;112921;1209;64470;-76
2021/03/31 09:27:55;;;;;;;14.77;7.57;;;;;;;18.99;31.87;101619.63;112939;1209;64504;-74
2021/03/31 09:30:23;;;;;;;14.05;6.05;;;;;;;19.14;31.84;101612.16;112891;1209;64445;-75
2021/03/31 09:33:00;;;;;;;9.30;4.60;;;;;;;19.29;31.89;101611.92;112910;1209;64377;-75
2021/03/31 09:35:29;;;;;;;12.10;6.50;;;;;;;19.44;30.16;101608.16;113037;1209;64381;-75
2021/03/31 09:37:58;;;;;;;14.97;6.63;;;;;;;19.56;30.29;101609.98;112896;1209;64377;-75
2021/03/31 09:40:36;;;;;;;11.00;6.77;;;;;;;19.67;31.10;101607.68;112973;1209;64451;-75
2021/03/31 09:43:04;;;;;;;13.67;6.30;;;;;;;19.80;31.14;101604.95;114966;1209;64298;-76
2021/03/31 09:45:32;;;;;;;9.57;5.60;;;;;;;19.93;30.17;101598.67;112896;1209;64355;-76
2021/03/31 09:47:59;;;;;;;11.67;7.07;;;;;;;20.03;29.66;101606.30;112933;1209;64348;-75
2021/03/31 09:50:27;;;;;;;13.73;7.83;;;;;;;20.08;29.89;101599.24;112978;1209;64412;-75
2021/03/31 09:52:56;;;;;;;15.33;7.23;;;;;;;20.20;30.16;101593.16;113040;1209;64326;-75
2021/03/31 09:55:24;;;;;;;11.50;5.47;;;;;;;20.32;29.47;101589.55;113146;1209;64454;-75
2021/03/31 09:57:52;;;;;;;13.40;6.80;;;;;;;20.44;29.05;101589.66;113079;1209;64812;-74
2021/03/31 10:00:21;;;;;;;12.30;6.17;;;;;;;20.53;29.46;101591.05;113164;1209;64464;-75
2021/03/31 10:02:49;;;;;;;12.95;6.75;;;;;;;20.63;27.64;101581.67;113138;1209;64468;-76
2021/03/31 10:05:21;;;;;;;13.57;6.70;;;;;;;20.68;27.21;101585.36;113128;1209;64375;-75
2021/03/31 10:07:59;;;;;;;13.95;7.60;;;;;;;20.76;28.52;101574.31;113153;1209;64368;-74
2021/03/31 10:10:45;;;;;;;11.63;7.73;;;;;;;20.88;28.91;101581.66;112989;1209;65569;-77
2021/03/31 10:13:15;;;;;;;14.40;7.50;;;;;;;20.97;29.46;101566.83;113117;1209;65328;-77
2021/03/31 10:15:46;;;;;;;19.20;7.17;;;;;;;21.05;28.57;101566.55;113105;1209;64477;-77
2021/03/31 10:18:14;;;;;;;12.10;5.90;;;;;;;21.19;28.46;101567.24;113055;1209;64314;-77
2021/03/31 10:20:48;;;;;;;12.27;6.60;;;;;;;21.34;27.25;101564.17;112957;1209;64412;-75
2021/03/31 10:23:31;;;;;;;14.07;6.43;;;;;;;21.39;26.82;101558.91;113056;1209;64393;-76
2021/03/31 10:26:24;;;;;;;12.07;7.30;;;;;;;21.50;27.35;101557.36;112934;1209;64428;-75
2021/03/31 10:29:03;;;;;;;12.97;6.27;;;;;;;21.56;26.62;101549.17;113583;1209;64323;-75
2021/03/31 10:31:51;;;;;;;11.03;6.07;;;;;;;21.66;26.00;101555.92;112877;1209;65589;-75
2021/03/31 10:34:19;;;;;;;10.37;6.50;;;;;;;21.76;27.05;101540.82;112974;1209;64409;-75
2021/03/31 10:53:57;;;;;;;11.30;6.57;;;;;;;22.41;25.86;101547.36;112897;1209;64458;-76
2021/03/31 10:56:24;;;;;;;12.57;5.60;;;;;;;22.46;26.72;101538.54;112977;1209;64384;-76
2021/03/31 10:58:51;;;;;;;10.13;5.97;;;;;;;22.52;25.55;101535.72;112892;1209;64485;-77
2021/03/31 11:01:18;;;;;;;12.23;6.00;;;;;;;22.64;25.51;101532.22;112965;1209;64364;-79
2021/03/31 11:03:44;;;;;;;11.00;6.00;;;;;;;22.73;24.34;101517.27;112966;1209;64339;-76
2021/03/31 11:06:11;;;;;;;9.05;5.85;;;;;;;22.77;24.59;101524.67;112930;1209;64263;-76
2021/03/31 11:08:38;;;;;;;9.53;5.50;;;;;;;22.88;25.20;101514.90;112943;1209;64406;-75
2021/03/31 11:11:09;;;;;;;12.30;6.33;;;;;;;22.98;24.45;101508.90;112815;1209;64423;-76
2021/03/31 11:13:37;;;;;;;9.47;5.10;;;;;;;23.08;24.34;101517.27;113011;1209;64387;-74
2021/03/31 11:16:08;;;;;;;12.83;6.80;;;;;;;23.13;23.90;101508.43;112940;1209;64432;-75
2021/03/31 11:21:15;;;;;;;8.67;5.47;;;;;;;23.33;23.31;101502.59;112917;1209;64330;-75
2021/03/31 11:27:05;;;;;;;11.90;7.03;;;;;;;23.55;23.60;101483.81;113157;1209;64384;-75
2021/03/31 11:29:34;;;;;;;10.03;6.03;;;;;;;23.59;23.78;101477.66;112970;1209;64365;-75
2021/03/31 11:32:01;;;;;;;8.63;5.27;;;;;;;23.73;24.94;101474.64;112966;1209;64308;-76
2021/03/31 11:34:27;;;;;;;9.93;6.30;;;;;;;23.85;23.28;101480.04;112949;1209;64368;-75
2021/03/31 11:36:54;;;;;;;9.67;6.20;;;;;;;23.94;23.26;101467.72;113016;1209;64362;-75
2021/03/31 11:39:20;;;;;;;8.87;4.53;;;;;;;24.00;23.41;101467.55;112993;1209;64368;-75
2021/03/31 11:41:47;;;;;;;8.75;5.55;;;;;;;24.11;25.32;101465.02;112985;1209;65575;-76
2021/03/31 11:44:14;;;;;;;10.00;5.97;;;;;;;24.25;24.66;101458.20;112924;1209;64550;-76
2021/03/31 11:46:41;;;;;;;10.03;6.13;;;;;;;24.43;25.13;101449.77;112949;1209;64375;-76
2021/03/31 11:49:07;;;;;;;12.33;5.30;;;;;;;24.68;24.23;101453.95;112996;1209;64355;-76
2021/03/31 11:51:34;;;;;;;9.55;3.95;;;;;;;24.87;25.01;101454.47;113157;1209;64389;-74
2021/03/31 11:54:01;;;;;;;12.70;6.83;;;;;;;25.10;24.85;101453.40;113185;1209;64462;-76
2021/03/31 11:56:27;;;;;;;11.80;5.67;;;;;;;25.45;22.94;101451.35;113003;1209;64384;-75
2021/03/31 11:58:55;;;;;;;9.70;5.60;;;;;;;25.76;22.77;101445.13;112941;1209;64454;-75